createdAt,value
2023-01-15T00:04:26.213Z,8.21
2023-01-15T00:10:49.302Z,7.98
2023-01-15T00:17:09.199Z,7.76
2023-01-15T00:23:32.246Z,7.63
2023-01-15T00:29:52.167Z,7.48
2023-01-15T00:36:15.226Z,7.34
2023-01-15T00:42:35.184Z,7.22
2023-01-15T00:48:58.169Z,7.13
2023-01-15T00:55:18.189Z,7.08
2023-01-15T01:01:41.369Z,7.03
2023-01-15T01:08:01.224Z,6.99
2023-01-15T01:14:24.247Z,6.96
2023-01-15T01:20:44.217Z,6.95
2023-01-15T01:27:07.216Z,6.92
2023-01-15T01:33:27.213Z,6.86
2023-01-15T01:39:50.218Z,6.82
2023-01-15T01:46:10.194Z,6.78
2023-01-15T01:52:33.159Z,6.74
2023-01-15T01:58:53.251Z,6.72
2023-01-15T02:05:16.252Z,6.71
2023-01-15T02:11:36.234Z,6.71
2023-01-15T02:17:59.195Z,6.71
2023-01-15T02:24:19.195Z,6.69
2023-01-15T02:30:42.305Z,6.68
2023-01-15T02:37:02.246Z,6.67
2023-01-15T02:43:25.253Z,6.65
2023-01-15T02:49:45.148Z,6.63
2023-01-15T02:56:08.185Z,6.63
2023-01-15T03:02:28.243Z,6.61
2023-01-15T03:08:51.249Z,6.58
2023-01-15T03:15:11.206Z,6.56
2023-01-15T03:21:34.261Z,6.56
2023-01-15T03:27:54.180Z,6.55
2023-01-15T03:34:17.234Z,6.53
2023-01-15T03:40:37.162Z,6.52
2023-01-15T03:47:00.210Z,6.54
2023-01-15T03:53:20.159Z,6.59
2023-01-15T03:59:43.185Z,6.64
2023-01-15T04:06:03.167Z,6.68
2023-01-15T04:30:02.105Z,6.74
2023-01-15T04:36:25.198Z,6.72
2023-01-15T04:42:45.253Z,6.67
2023-01-15T04:49:08.164Z,6.65
2023-01-15T04:55:28.194Z,6.63
2023-01-15T05:02:02.917Z,6.63
2023-01-15T05:08:11.276Z,6.61
2023-01-15T05:14:34.243Z,6.62
2023-01-15T05:20:54.164Z,6.67
2023-01-15T05:27:17.175Z,6.71
2023-01-15T05:33:37.182Z,6.72
2023-01-15T05:40:00.207Z,6.74
2023-01-15T05:46:20.301Z,6.74
2023-01-15T05:52:43.193Z,6.7
2023-01-15T05:59:03.226Z,6.64
2023-01-15T06:05:26.166Z,6.61
2023-01-15T06:11:46.685Z,6.55
2023-01-15T06:18:09.196Z,6.51
2023-01-15T06:24:29.170Z,6.44
2023-01-15T06:30:52.248Z,6.35
2023-01-15T06:37:12.234Z,6.3
2023-01-15T06:43:35.292Z,6.24
2023-01-15T06:49:55.332Z,6.16
2023-01-15T06:56:18.274Z,6.05
2023-01-15T07:02:38.240Z,5.97
2023-01-15T07:09:01.234Z,5.91
2023-01-15T07:15:21.242Z,5.86
2023-01-15T07:21:44.240Z,5.79
2023-01-15T07:28:04.241Z,5.71
2023-01-15T07:34:27.212Z,5.71
2023-01-15T07:40:47.196Z,5.75
2023-01-15T07:47:10.238Z,5.79
2023-01-15T07:53:30.269Z,5.84
2023-01-15T07:59:53.226Z,5.9
2023-01-15T08:06:13.215Z,5.93
2023-01-15T08:12:36.294Z,5.95
2023-01-15T08:18:56.203Z,5.96
2023-01-15T08:25:19.230Z,5.98
2023-01-15T08:31:39.238Z,5.99
2023-01-15T08:38:02.303Z,6
2023-01-15T08:44:22.223Z,6.04
2023-01-15T08:50:45.233Z,6.09
2023-01-15T08:57:05.183Z,6.12
2023-01-15T09:03:28.271Z,5.96
2023-01-15T09:09:48.200Z,5.9
2023-01-15T09:16:11.256Z,5.9
2023-01-15T09:41:16.149Z,6.26
2023-01-15T09:47:36.153Z,6.33
2023-01-15T09:53:59.273Z,6.35
2023-01-15T10:00:19.197Z,6.36
2023-01-15T10:06:42.190Z,6.51
2023-01-15T10:13:02.249Z,6.65
2023-01-15T10:19:31.836Z,6.69
2023-01-15T10:25:45.154Z,6.67
2023-01-15T10:32:08.177Z,6.69
2023-01-15T10:38:28.192Z,6.75
2023-01-15T10:44:51.193Z,6.98
2023-01-15T10:51:11.141Z,7.28
2023-01-15T10:57:34.222Z,7.53
2023-01-15T11:03:54.177Z,7.67
2023-01-15T11:10:17.252Z,7.87
2023-01-15T11:16:37.206Z,8.02
2023-01-15T11:23:00.200Z,8.17
2023-01-15T11:29:20.218Z,8.37
2023-01-15T11:35:43.186Z,8.65
2023-01-15T11:42:03.165Z,8.66
2023-01-15T11:48:26.271Z,8.52
2023-01-15T11:54:46.173Z,8.44
2023-01-15T12:01:09.205Z,8.38
2023-01-15T12:07:29.219Z,8.43
2023-01-15T12:13:52.166Z,8.3
2023-01-15T12:20:12.367Z,8.17
2023-01-15T12:26:35.196Z,8.1
2023-01-15T12:32:55.321Z,8.12
2023-01-15T12:39:18.171Z,8.16
2023-01-15T12:45:38.143Z,8.24
2023-01-15T12:52:01.208Z,8.31
2023-01-15T12:58:21.149Z,8.36
2023-01-15T13:04:44.205Z,8.31
2023-01-15T13:11:04.236Z,8.43
2023-01-15T13:17:27.181Z,8.52
2023-01-15T13:23:47.229Z,8.55
2023-01-15T13:30:10.187Z,8.51
2023-01-15T13:36:30.221Z,8.42
2023-01-15T13:42:53.278Z,8.36
2023-01-15T13:49:13.185Z,8.37
2023-01-15T13:55:36.271Z,8.36
2023-01-15T14:01:56.290Z,8.4
2023-01-15T14:08:19.198Z,8.58
2023-01-15T14:14:39.184Z,8.65
2023-01-15T14:21:02.299Z,8.59
2023-01-15T14:27:22.221Z,8.46
2023-01-15T14:33:45.202Z,8.33
2023-01-15T14:57:51.663Z,8.05
2023-01-15T15:04:11.143Z,7.99
2023-01-15T15:10:34.172Z,7.95
2023-01-15T15:16:54.188Z,7.92
2023-01-15T15:23:17.167Z,7.92
2023-01-15T15:29:37.269Z,7.91
2023-01-15T15:36:00.227Z,7.89
2023-01-15T15:42:20.287Z,7.87
2023-01-15T15:48:43.266Z,7.85
2023-01-15T15:55:03.183Z,7.83
2023-01-15T16:01:26.259Z,7.81
2023-01-15T16:07:46.417Z,7.76
2023-01-15T16:14:09.556Z,7.7
2023-01-15T16:20:29.212Z,7.65
2023-01-15T16:26:52.175Z,7.61
2023-01-15T16:33:12.272Z,7.57
2023-01-15T16:39:35.144Z,7.56
2023-01-15T16:45:55.424Z,7.53
2023-01-15T16:52:18.165Z,7.51
2023-01-15T16:58:38.214Z,7.49
2023-01-15T17:05:01.225Z,7.46
2023-01-15T17:11:21.203Z,7.42
2023-01-15T17:17:44.194Z,7.39
2023-01-15T17:24:04.193Z,7.38
2023-01-15T17:30:27.189Z,7.35
2023-01-15T17:36:47.254Z,7.32
2023-01-15T17:43:10.190Z,7.31
2023-01-15T17:49:30.211Z,7.32
2023-01-15T17:55:53.196Z,7.33
2023-01-15T18:02:13.260Z,7.33
2023-01-15T18:08:36.225Z,7.35
2023-01-15T18:14:56.175Z,7.36
2023-01-15T18:21:19.201Z,7.35
2023-01-15T18:27:39.168Z,7.33
2023-01-15T18:34:02.193Z,7.27
2023-01-15T18:40:22.292Z,7.19
2023-01-15T18:46:45.246Z,7.12
2023-01-15T18:53:05.255Z,7.06
2023-01-15T18:59:28.183Z,7.01
2023-01-15T19:05:48.186Z,6.96
2023-01-15T19:12:11.276Z,6.85
2023-01-15T19:18:31.193Z,6.76
2023-01-15T19:24:54.217Z,6.7
2023-01-15T19:31:14.255Z,6.63
2023-01-15T19:37:37.203Z,6.59
2023-01-15T19:43:57.225Z,6.58
2023-01-15T19:59:32.065Z,6.49
2023-01-15T20:05:52.153Z,6.44
2023-01-15T20:12:15.188Z,6.42
2023-01-15T20:18:35.204Z,6.43
2023-01-15T20:24:58.171Z,6.42
2023-01-15T20:31:18.331Z,6.41
2023-01-15T20:37:41.163Z,6.41
2023-01-15T20:44:01.191Z,6.45
2023-01-15T20:50:24.456Z,6.52
2023-01-15T20:56:44.204Z,6.59
2023-01-15T21:03:07.221Z,6.63
2023-01-15T21:09:27.140Z,6.66
2023-01-15T21:15:50.152Z,6.69
2023-01-15T21:22:10.198Z,6.72
2023-01-15T21:28:33.180Z,6.74
2023-01-15T21:34:53.213Z,6.75
2023-01-15T21:41:16.207Z,6.78
2023-01-15T21:47:36.157Z,6.78
2023-01-15T21:54:00.384Z,6.78
2023-01-15T22:00:19.191Z,6.79
2023-01-15T22:06:42.213Z,6.78
2023-01-15T22:13:02.172Z,6.75
2023-01-15T22:19:25.196Z,6.73
2023-01-15T22:25:45.193Z,6.71
2023-01-15T22:32:08.182Z,6.72
2023-01-15T22:38:28.335Z,6.73
2023-01-15T22:44:51.183Z,6.74
2023-01-15T22:51:11.209Z,6.75
2023-01-15T22:57:34.267Z,6.74
2023-01-15T23:20:31.189Z,6.51
2023-01-15T23:26:51.143Z,6.48
2023-01-15T23:33:14.161Z,6.42
2023-01-15T23:39:34.174Z,6.37
2023-01-15T23:45:57.464Z,6.28
2023-01-15T23:52:17.373Z,6.18
2023-01-15T23:58:40.232Z,6.11
